Fond du Lac, WI (54935)

5:11 PM CDT on July 23, 2016 (GMT -0500)
Lake Winnebago - South Shore | | Change Station

Elev 741 ft 43.80 °N, 88.42 °W | Updated 14 minutes ago

Partly Cloudy
Partly Cloudy
77.5 °F
Feels Like 79 °F
N
2.2
Wind Variable Wind from South

Today
High -- | Low -- °F
--% Chance of Precip.
Yesterday
High -- | Low -- °F
Precip. -- in
Pressure 29.95 in
Visibility 10.0 miles
Clouds Few 11000 ft
Heat Index 79 °F
Dew Point 73 °F
Humidity 85%
Rainfall in
Snow Depth Not available.
5:33 AM 8:25 PM
Waning Gibbous, 82% visible
METAR KFLD 232153Z AUTO 22005KT 10SM FEW110 25/22 A2996 RMK AO2 LTG DSNT SE RAE51 TSB07E27 SLP142 P0003 T02500222
Pressure 29.95 in
Visibility 10.0 miles
Clouds Few 11000 ft
Heat Index 79 °F
Dew Point 73 °F
Humidity 85%
Rainfall in
Snow Depth Not available.
5:33 AM 8:25 PM
Waning Gibbous, 82% visible
METAR KFLD 232153Z AUTO 22005KT 10SM FEW110 25/22 A2996 RMK AO2 LTG DSNT SE RAE51 TSB07E27 SLP142 P0003 T02500222

10-Day Weather Forecast

Almanac

Astronomy

Jul. 23, 2016 Rise Set
Actual Time
Civil Twilight
Nautical Twilight
Astronomical Twilight
Moon
Length of Visible Light
Length of Day
Tomorrow will be .
, % of the Moon is Illuminated

Today's Extremes

State Highs State Lows

Community

WunderPhotos

Upload Photos

1,926,940 photos uploaded!

WunderBlog® & News

Nearby

Air Quality

  Air Quality AQ Index Pollutant
Not available.

Snow Depth

Station Depth Elevation

Earthquake Activity

City Distance Mag. Time & Date
Minimum magnitude displayed is 2.5.

Coastal Water Temperatures

Place Temperature

Stations

Nearby Weather Stations

Station Location Temp. Windchill Dew Point Humidity Wind Precip. Elev Updated Type
                   

Watches & Warnings

There are currently no watches in effect.